CheckWX is a tool to help pilots better visualize weather data.  It is not intended as a substitute for an official pre-flight weather briefing.

20:33:01 UTC

YPLM TAF
Learmonth Airport
Exmouth, Australia
TAF YPLM 221741Z 2218/2318 19010KT CAVOK BECMG 2300/2302 11010KT CAVOK FM231000 19014KT CAVOK FM231400 14014KT CAVOK PROB30 INTER 2308/2314 VRB25G40KT 4000 TSRA BKN020 FEW100CB

Mar-22@
18:00 UTC

Mar-22 @ 18:00 UTC

Mar-23@
00:00 UTC

Mar-23 @ 00:00 UTC

TAF YPLM 221741Z 2218/2318 19010KT CAVOK
Wind
  • 190° at 10 KTS
Conditions
No significant weather
Cloud Levels
  • No significant clouds

Mar-23@
00:00 UTC

Mar-23 @ 00:00 UTC

Mar-23@
10:00 UTC

Mar-23 @ 10:00 UTC

BECMG 2300/2302 11010KT CAVOK

Becoming

Becoming Conditions expected by Sat, Mar 23, 2019 @ 02:00 UTC

Wind
  • 110° at 10 KTS
Conditions
No significant weather
Cloud Levels
  • No significant clouds

Mar-23@
08:00 UTC

Mar-23 @ 08:00 UTC

Mar-23@
14:00 UTC

Mar-23 @ 14:00 UTC

PROB30 INTER 2308/2314 VRB25G40KT 4000 TSRA BKN020 FEW100CB

Temporary - 30% Likelihood

Temporary - 30% Likelihood during this time.

Wind
  • Variable at 25 KTS
  • {Gusting to 40 KTS
Conditions
Thunderstorm, Rain
Cloud Levels
  • Broken at 2,000' AGL
  • Few at 10,000' AGL

Mar-23@
10:00 UTC

Mar-23 @ 10:00 UTC

Mar-23@
14:00 UTC

Mar-23 @ 14:00 UTC

FM231000 19014KT CAVOK

From

From Standard forecast or significant change

Wind
  • 190° at 14 KTS
Conditions
No significant weather
Cloud Levels
  • No significant clouds

Mar-23@
14:00 UTC

Mar-23 @ 14:00 UTC

Mar-23@
18:00 UTC

Mar-23 @ 18:00 UTC

FM231400 14014KT CAVOK

From

From Standard forecast or significant change

Wind
  • 140° at 14 KTS
Conditions
No significant weather
Cloud Levels
  • No significant clouds